Weather at Fuenterrobles

Public forecast

Using degrees Celsius for public forecast. Weather courtesy of forecast.io.

Closest aviation weather report (METAR) to Fuenterrobles

Closest report is Valencia Airport, 41.0 nm (76.0 km) E. Retrieved 2021/04/17 10:30 UTC (23 minutes ago):

LEVC 171030Z 23007KT 190V280 9999 FEW050 13/03 Q1018 NOSIG

Closest aviation forecast (TAF) to Fuenterrobles

Closest forecast is Valencia Airport, 41.0 nm (76.0 km) E. Retrieved 2021/04/17 06:27 UTC (4 hours ago):

TAF LEVC 170500Z 1706/1806 31004KT 9999 BKN060 TX16/1713Z TN05/1706Z BECMG 1710/1712 13010KT